• Join FlightAware (Why Join?)
  • Login
  • US Flag 
02:32PM EST


 

Airport Tracker/Info


-or-


 

Live Flight TrackerFlight Track Log ✈ OPT429 ✈ 21-Jun-2014 ✈ KSPW - KTVC

Flight Track Log - Related Links

Times and Time Zones

All times are in EDT time to prevent confusion due to time zone crossing. See the OPT429 flight status page for this flight to view local times or setup timezone preferences in your user account.

Time Position Orientation Groundspeed Altitude Reporting Facility
EDT Latitude Longitude Course Direction KTS MPH feet Rate Location/Type
03:11PM 43.1867 -95.0614 69° East 547 629 4,900  Level Minneapolis Center
03:12PM 43.2122 -94.9711 69° East 254 292 6,800 1,920 Climbing Minneapolis Center
03:13PM 43.2403 -94.8653 70° East 273 314 8,900 2,520 Climbing Minneapolis Center
03:14PM 43.2619 -94.7564 75° East 293 337 12,000 2,820 Climbing Minneapolis Center
03:15PM 43.2861 -94.6444 73° East 303 349 14,800 2,400 Climbing Minneapolis Center
03:16PM 43.3125 -94.5236 73° East 325 374 17,000 1,980 Climbing Minneapolis Center
03:17PM 43.3400 -94.3894 74° East 358 412 19,000 1,980 Climbing Minneapolis Center
03:18PM 43.3708 -94.2428 74° East 377 434 21,100 1,860 Climbing Minneapolis Center
03:19PM 43.4008 -94.1006 74° East 384 442 22,900 1,860 Climbing Minneapolis Center
03:20PM 43.4378 -93.9222 74° East 401 461 25,000 1,740 Climbing Minneapolis Center
03:21PM 43.4681 -93.7700 75° East 409 471 26,500 1,440 Climbing Minneapolis Center
03:22PM 43.4997 -93.6142 74° East 417 480 28,000 1,380 Climbing Minneapolis Center
03:23PM 43.5319 -93.4531 75° East 431 496 29,400 1,380 Climbing Minneapolis Center
03:24PM 43.5650 -93.2881 74° East 445 512 30,900 1,560 Climbing Minneapolis Center
03:25PM 43.5992 -93.1189 74° East 454 522 32,700 1,740 Climbing Minneapolis Center
03:26PM 43.6392 -92.9186 75° East 454 522 34,600 1,500 Climbing Minneapolis Center
03:27PM 43.6739 -92.7486 74° East 455 524 35,800 1,020 Climbing Minneapolis Center
03:28PM 43.7053 -92.5761 76° East 460 529 36,800 1,020 Climbing Minneapolis Center
03:29PM 43.7397 -92.4006 75° East 468 539 38,000 1,380 Climbing Minneapolis Center
03:30PM 43.7717 -92.2269 76° East 468 539 39,700 1,380 Climbing Minneapolis Center
03:31PM 43.8039 -92.0619 75° East 452 520 40,900 600 Climbing Minneapolis Center
03:32PM 43.8311 -91.8978 77° East 446 513 41,000  Climbing Minneapolis Center
03:33PM 43.8697 -91.6950 75° East 450 518 41,000  Level Minneapolis Center
03:34PM 43.9028 -91.5239 75° East 454 522 41,000  Level Minneapolis Center
03:35PM 43.9356 -91.3544 75° East 454 522 41,000  Level Minneapolis Center
03:36PM 43.9717 -91.1903 73° East 454 522 41,000  Level Minneapolis Center
03:37PM 44.0067 -91.0225 74° East 454 522 41,000  Level Minneapolis Center
03:38PM 44.0417 -90.8547 74° East 454 522 41,000  Level Minneapolis Center
03:39PM 44.0839 -90.6525 74° East 454 522 41,000  Level Minneapolis Center
03:40PM 44.1133 -90.5000 75° East 454 522 41,000  Level Minneapolis Center
03:41PM 44.1492 -90.3286 74° East 455 524 41,000  Level Minneapolis Center
03:42PM 44.1822 -90.1572 75° East 457 526 41,000  Level Minneapolis Center
03:43PM 44.2244 -89.9489 74° East 460 529 41,000  Level Minneapolis Center
03:45PM 44.2578 -89.7778 75° East 461 531 41,000  Level Minneapolis Center
03:46PM 44.2914 -89.6044 75° East 462 532 41,000  Level Minneapolis Center
03:47PM 44.3253 -89.4308 75° East 462 532 41,000  Level Minneapolis Center
03:48PM 44.3586 -89.2567 75° East 462 532 41,000  Level Minneapolis Center
03:49PM 44.3794 -89.0797 81° East 464 534 41,000  Level Minneapolis Center
03:50PM 44.3964 -88.9006 82° East 464 534 41,000  Level Minneapolis Center
03:51PM 44.4139 -88.7203 82° East 464 534 41,000  Level Minneapolis Center
03:52PM 44.4336 -88.5078 83° East 463 533 41,000  Level Minneapolis Center
03:53PM 44.4494 -88.3289 83° East 463 533 41,000  Level Minneapolis Center
03:54PM 44.4661 -88.1522 82° East 462 532 41,000 -120 Level Minneapolis Center
03:55PM 44.4817 -87.9719 83° East 462 532 40,800 -1,320 Descending Minneapolis Center
03:56PM 44.4983 -87.7853 83° East 463 533 38,400 -2,580 Descending Minneapolis Center
03:57PM 44.5133 -87.6033 83° East 470 541 35,600 -2,760 Descending Minneapolis Center
03:58PM 44.5294 -87.4217 83° East 471 542 32,700 -2,820 Descending Minneapolis Center
03:59PM 44.5431 -87.2439 84° East 465 535 29,800 -3,060 Descending Minneapolis Center
04:00PM 44.5600 -87.0342 83° East 456 525 26,400 -3,000 Descending Minneapolis Center
04:01PM 44.5736 -86.8614 84° East 453 521 23,700 -2,640 Descending Minneapolis Center
04:02PM 44.5861 -86.6939 84° East 439 505 21,000 -2,520 Descending Minneapolis Center
04:03PM 44.5775 -86.5419 94° East 396 456 18,500 -2,460 Descending Minneapolis Center
04:04PM 44.5647 -86.4022 97° East 371 427 16,000 -1,800 Descending Minneapolis Center
04:05PM 44.5519 -86.2664 97° East 360 414 14,900 -540 Descending Minneapolis Center
04:06PM 44.5386 -86.1094 97° East 344 396 14,900  Level Minneapolis Center
04:07PM 44.5297 -85.9903 96° East 318 366 14,900  Level Minneapolis Center
04:08PM 44.5347 -85.8764 86° East 302 348 14,900 -960 Level Minneapolis Center
04:09PM 44.5422 -85.7656 85° East 294 338 13,000 -2,520 Descending Minneapolis Center
04:10PM 44.5906 -85.6725 54° Northeast 298 343 9,800 -3,000 Descending Minneapolis Center
04:11PM 44.6411 -85.5867 50° Northeast 293 337 6,900 -2,340 Descending Minneapolis Center
04:12PM 44.6944 -85.4983 50° Northeast 266 306 5,000 -1,560 Descending Minneapolis Center
04:13PM 44.7253 -85.4614 40° Northeast 197 227 3,700 -1,380 Descending Minneapolis Center
04:14PM 44.7433 -85.4933 309° West 162 186 2,200 -1,260 Descending Minneapolis Center
04:15PM 44.7392 -85.5406 263° West 139 160 1,200 -1,020 Descending Minneapolis Center